createdAt,value
2019-05-18T00:00:03.166Z,35.46
2019-05-18T00:02:32.253Z,34.94
2019-05-18T00:05:01.148Z,34.94
2019-05-18T00:07:30.255Z,34.97
2019-05-18T00:10:00.063Z,34.98
2019-05-18T00:12:29.354Z,35.05
2019-05-18T00:14:57.958Z,35.01
2019-05-18T00:17:27.766Z,35.01
2019-05-18T00:19:56.475Z,35.02
2019-05-18T00:22:24.404Z,35.04
2019-05-18T00:24:53.763Z,35.17
2019-05-18T00:27:24.297Z,35.17
2019-05-18T00:29:53.597Z,35.02
2019-05-18T00:32:23.317Z,35.02
2019-05-18T00:34:51.509Z,35.34
2019-05-18T00:37:19.920Z,35.39
2019-05-18T00:39:48.997Z,35.22
2019-05-18T00:42:19.250Z,35.14
2019-05-18T00:44:48.651Z,35.04
2019-05-18T00:47:17.635Z,34.82
2019-05-18T00:49:47.174Z,34.82
2019-05-18T00:52:15.702Z,35.08
2019-05-18T00:54:45.459Z,35.08
2019-05-18T00:57:15.759Z,35.07
2019-05-18T00:59:46.166Z,35.07
2019-05-18T01:02:17.355Z,35.14
2019-05-18T01:04:47.718Z,35.20
2019-05-18T01:07:17.138Z,35.29
2019-05-18T01:09:47.639Z,35.35
2019-05-18T01:12:20.449Z,35.28
2019-05-18T01:14:49.790Z,35.32
2019-05-18T01:17:19.191Z,35.26
2019-05-18T01:19:48.777Z,35.17
2019-05-18T01:22:18.616Z,35.18
2019-05-18T01:27:26.374Z,35.09
2019-05-18T01:29:56.246Z,35.10
2019-05-18T01:32:25.205Z,35.10
2019-05-18T01:34:54.424Z,35.29
2019-05-18T01:37:24.738Z,35.37
2019-05-18T01:39:54.350Z,35.32
2019-05-18T01:43:33.186Z,35.32
2019-05-18T01:47:13.702Z,35.37
2019-05-18T01:49:42.418Z,35.64
2019-05-18T01:52:12.208Z,35.31
2019-05-18T01:54:41.146Z,35.31
2019-05-18T01:57:10.720Z,35.20
2019-05-18T02:00:26.075Z,35.44
2019-05-18T02:05:08.919Z,35.37
2019-05-18T02:07:38.700Z,35.66
2019-05-18T02:10:08.244Z,35.38
2019-05-18T02:12:38.458Z,35.42
2019-05-18T02:15:08.155Z,35.42
2019-05-18T02:17:38.322Z,35.39
2019-05-18T02:20:07.420Z,35.39
2019-05-18T02:22:37.908Z,35.37
2019-05-18T02:25:07.972Z,35.39
2019-05-18T02:27:37.058Z,35.37
2019-05-18T02:30:07.922Z,35.44
2019-05-18T02:32:38.097Z,35.40
2019-05-18T02:35:08.492Z,35.40
2019-05-18T02:37:37.525Z,35.22
2019-05-18T02:40:06.497Z,35.50
2019-05-18T02:42:36.994Z,35.57
2019-05-18T02:45:06.520Z,35.57
2019-05-18T02:47:36.262Z,35.51
2019-05-18T02:50:06.394Z,35.60
2019-05-18T02:52:36.016Z,35.60
2019-05-18T02:55:05.223Z,35.63
2019-05-18T02:57:34.834Z,35.51
2019-05-18T03:00:03.392Z,35.51
2019-05-18T03:02:33.030Z,35.51
2019-05-18T03:05:01.681Z,35.51
2019-05-18T03:07:30.944Z,35.47
2019-05-18T03:10:00.563Z,35.53
2019-05-18T03:12:30.383Z,35.52
2019-05-18T03:15:00.509Z,35.52
2019-05-18T03:17:30.114Z,35.60
2019-05-18T03:19:58.443Z,35.60
2019-05-18T03:22:28.084Z,35.58
2019-05-18T03:24:58.427Z,35.58
2019-05-18T03:27:29.016Z,35.51
2019-05-18T03:29:58.885Z,35.65
2019-05-18T03:32:28.011Z,35.60
2019-05-18T03:36:51.782Z,35.60
2019-05-18T03:39:21.511Z,35.58
2019-05-18T03:43:23.889Z,35.64
2019-05-18T03:45:54.181Z,35.88
2019-05-18T03:51:42.987Z,35.72
2019-05-18T03:55:23.488Z,35.79
2019-05-18T03:57:53.568Z,35.77
2019-05-18T04:01:09.294Z,35.59
2019-05-18T04:03:39.722Z,35.56
2019-05-18T04:06:08.471Z,35.58
2019-05-18T04:08:37.722Z,35.58
2019-05-18T04:11:05.998Z,35.69
2019-05-18T04:13:34.798Z,35.69
2019-05-18T04:16:03.973Z,35.74
2019-05-18T04:18:32.927Z,35.74
2019-05-18T04:21:07.512Z,35.79
2019-05-18T04:23:35.486Z,35.89
2019-05-18T04:26:05.164Z,35.81
2019-05-18T04:28:35.913Z,35.62
2019-05-18T04:31:05.686Z,35.80
2019-05-18T04:33:34.965Z,35.80
2019-05-18T04:36:03.363Z,35.45
2019-05-18T04:38:33.259Z,35.47
2019-05-18T04:41:03.029Z,35.67
2019-05-18T04:43:32.408Z,35.67
2019-05-18T04:46:01.943Z,35.56
2019-05-18T04:48:31.295Z,35.56
2019-05-18T04:52:10.522Z,35.47
2019-05-18T04:54:39.453Z,35.53
2019-05-18T04:57:08.922Z,35.56
2019-05-18T04:59:38.615Z,34.86
2019-05-18T05:02:06.448Z,34.86
2019-05-18T05:04:34.503Z,35.51
2019-05-18T05:07:02.509Z,35.61
2019-05-18T05:09:30.603Z,35.73
2019-05-18T05:11:58.869Z,35.73
2019-05-18T05:16:23.629Z,35.71
2019-05-18T05:18:51.526Z,35.72
2019-05-18T05:21:20.254Z,35.80
2019-05-18T05:23:48.999Z,35.78
2019-05-18T05:26:17.340Z,35.91
2019-05-18T05:28:46.239Z,35.91
2019-05-18T05:31:14.402Z,35.89
2019-05-18T05:33:42.232Z,35.64
2019-05-18T05:36:11.283Z,35.42
2019-05-18T05:38:38.545Z,35.38
2019-05-18T05:41:06.597Z,35.29
2019-05-18T05:43:34.385Z,35.24
2019-05-18T05:46:02.890Z,34.79
2019-05-18T05:48:32.592Z,34.79
2019-05-18T05:51:01.073Z,35.07
2019-05-18T05:53:29.310Z,35.04
2019-05-18T05:55:59.149Z,35.07
2019-05-18T05:58:28.159Z,35.07
2019-05-18T06:00:57.547Z,35.11
2019-05-18T06:03:25.452Z,35.34
2019-05-18T06:05:53.672Z,35.34
2019-05-18T06:08:21.459Z,35.15
2019-05-18T06:10:49.210Z,35.02
2019-05-18T06:13:17.965Z,35.14
2019-05-18T06:15:45.748Z,35.03
2019-05-18T06:18:13.573Z,34.98
2019-05-18T06:20:50.973Z,34.90
2019-05-18T06:23:11.749Z,34.88
2019-05-18T06:25:41.711Z,35.09
2019-05-18T06:28:11.721Z,35.11
2019-05-18T06:30:40.445Z,35.55
2019-05-18T06:33:08.639Z,35.24
2019-05-18T06:35:37.610Z,35.04
2019-05-18T06:38:06.273Z,35.04
2019-05-18T06:40:34.283Z,35.01
2019-05-18T06:43:02.412Z,34.86
2019-05-18T06:47:03.855Z,34.67
2019-05-18T06:49:32.139Z,34.64
2019-05-18T06:52:00.636Z,34.69
2019-05-18T06:54:28.689Z,34.53
2019-05-18T06:56:58.911Z,34.53
2019-05-18T06:59:26.619Z,34.35
2019-05-18T07:01:54.658Z,34.19
2019-05-18T07:04:22.471Z,34.06
2019-05-18T07:06:50.478Z,34.02
2019-05-18T07:09:18.543Z,34.04
2019-05-18T07:11:46.669Z,34.33
2019-05-18T07:14:25.424Z,34.09
2019-05-18T07:16:45.288Z,34.09
2019-05-18T07:19:13.696Z,33.93
2019-05-18T07:21:41.777Z,33.93
2019-05-18T07:24:10.021Z,33.89
2019-05-18T07:26:38.318Z,34.09
2019-05-18T07:29:07.123Z,34.09
2019-05-18T07:31:35.446Z,34.06
2019-05-18T07:34:03.254Z,34.04
2019-05-18T07:36:31.330Z,34.04
2019-05-18T07:38:59.634Z,34.26
2019-05-18T07:41:27.662Z,34.26
2019-05-18T07:43:55.689Z,34.15
2019-05-18T07:46:23.779Z,34.15
2019-05-18T07:48:51.523Z,34.51
2019-05-18T07:51:19.398Z,34.16
2019-05-18T07:53:47.290Z,34.16
2019-05-18T07:56:14.992Z,34.05
2019-05-18T07:58:43.262Z,33.92
2019-05-18T08:01:11.218Z,33.80
2019-05-18T08:03:39.274Z,33.66
2019-05-18T08:06:07.573Z,33.63
2019-05-18T08:08:35.583Z,33.63
2019-05-18T08:11:03.882Z,33.88
2019-05-18T08:13:32.021Z,33.88
2019-05-18T08:15:59.719Z,33.38
2019-05-18T08:18:27.502Z,33.26
2019-05-18T08:20:55.301Z,33.34
2019-05-18T08:23:23.450Z,33.34
2019-05-18T08:25:52.418Z,33.17
2019-05-18T08:28:20.256Z,33.17
2019-05-18T08:30:48.962Z,33.01
2019-05-18T08:33:17.137Z,32.88
2019-05-18T08:35:45.251Z,33.08
2019-05-18T08:38:12.935Z,33.36
2019-05-18T08:40:41.238Z,33.36
2019-05-18T08:43:09.183Z,33.23
2019-05-18T08:45:37.121Z,33.41
2019-05-18T08:48:05.121Z,33.42
2019-05-18T08:50:32.943Z,33.42
2019-05-18T08:53:00.809Z,33.29
2019-05-18T08:55:28.511Z,33.28
2019-05-18T08:57:56.511Z,33.26
2019-05-18T09:00:24.135Z,33.23
2019-05-18T09:02:54.092Z,33.36
2019-05-18T09:05:22.756Z,33.34
2019-05-18T09:07:51.055Z,33.40
2019-05-18T09:10:18.862Z,33.45
2019-05-18T09:12:46.389Z,33.46
2019-05-18T09:15:17.436Z,33.42
2019-05-18T09:20:27.195Z,33.32
2019-05-18T09:22:54.623Z,33.33
2019-05-18T09:25:23.407Z,33.29
2019-05-18T09:27:50.846Z,33.18
2019-05-18T09:32:24.857Z,33.10
2019-05-18T09:36:27.423Z,32.93
2019-05-18T09:38:55.231Z,32.93
2019-05-18T09:41:22.814Z,32.79
2019-05-18T09:43:55.098Z,32.79
2019-05-18T09:46:23.493Z,32.73
2019-05-18T09:48:51.799Z,32.57
2019-05-18T09:51:19.500Z,32.55
2019-05-18T09:53:51.662Z,32.59
2019-05-18T09:56:16.462Z,32.51
2019-05-18T09:58:44.606Z,32.46
2019-05-18T10:01:13.127Z,32.42
2019-05-18T10:03:41.247Z,32.71
2019-05-18T10:06:09.302Z,32.71
2019-05-18T10:08:36.617Z,32.43
2019-05-18T10:11:05.324Z,32.35
2019-05-18T10:13:33.232Z,32.35
2019-05-18T10:16:00.499Z,32.43
2019-05-18T10:18:28.198Z,32.39
2019-05-18T10:20:55.554Z,32.31
2019-05-18T10:23:23.156Z,32.34
2019-05-18T10:25:50.809Z,32.45
2019-05-18T10:28:18.151Z,32.40
2019-05-18T10:30:45.977Z,32.56
2019-05-18T10:33:13.362Z,32.96
2019-05-18T10:35:41.150Z,32.96
2019-05-18T10:38:09.510Z,33.02
2019-05-18T10:40:36.731Z,33.33
2019-05-18T10:43:03.988Z,33.12
2019-05-18T10:48:14.360Z,32.80
2019-05-18T10:50:43.134Z,32.77
2019-05-18T10:53:10.718Z,33.11
2019-05-18T10:55:38.707Z,33.29
2019-05-18T10:58:06.273Z,33.64
2019-05-18T11:01:24.241Z,33.58
2019-05-18T11:03:51.752Z,33.50
2019-05-18T11:06:20.119Z,33.33
2019-05-18T11:08:47.550Z,32.56
2019-05-18T11:11:16.083Z,32.25
2019-05-18T11:13:43.721Z,32.12
2019-05-18T11:16:11.447Z,32.05
2019-05-18T11:18:38.903Z,32.14
2019-05-18T11:21:06.443Z,31.90
2019-05-18T11:23:43.156Z,31.83
2019-05-18T11:26:03.038Z,32.03
2019-05-18T11:28:30.953Z,31.92
2019-05-18T11:30:58.228Z,32.14
2019-05-18T11:33:25.475Z,32.11
2019-05-18T11:35:52.943Z,31.81
2019-05-18T11:38:20.273Z,31.81
2019-05-18T11:40:47.506Z,31.79
2019-05-18T11:43:15.165Z,31.90
2019-05-18T11:45:43.024Z,32.12
2019-05-18T11:48:10.672Z,32.08
2019-05-18T11:50:38.273Z,31.87
2019-05-18T11:53:05.583Z,32.06
2019-05-18T11:55:32.815Z,31.98
2019-05-18T11:58:00.027Z,32.21
2019-05-18T12:00:27.318Z,32.32
2019-05-18T12:02:54.684Z,32.25
2019-05-18T12:05:22.041Z,31.97
2019-05-18T12:07:49.907Z,31.98
2019-05-18T12:10:18.679Z,31.70
2019-05-18T12:12:46.544Z,31.44
2019-05-18T12:15:14.513Z,31.36
2019-05-18T12:17:41.949Z,31.64
2019-05-18T12:20:09.754Z,32.22
2019-05-18T12:22:37.180Z,32.22
2019-05-18T12:25:04.873Z,32.05
2019-05-18T12:27:32.575Z,31.94
2019-05-18T12:30:00.512Z,31.90
2019-05-18T12:32:28.120Z,32.02
2019-05-18T12:34:55.671Z,32.37
2019-05-18T12:37:22.940Z,32.37
2019-05-18T12:39:51.796Z,32.40
2019-05-18T12:42:19.716Z,32.17
2019-05-18T12:44:46.931Z,32.14
2019-05-18T12:47:14.609Z,32.08
2019-05-18T12:49:42.150Z,31.88
2019-05-18T12:52:09.520Z,31.01
2019-05-18T12:54:46.004Z,31.01
2019-05-18T12:57:07.172Z,31.30
2019-05-18T12:59:34.710Z,31.51
2019-05-18T13:02:02.365Z,31.65
2019-05-18T13:07:11.762Z,32.03
2019-05-18T13:09:39.000Z,31.69
2019-05-18T13:12:06.406Z,32.08
2019-05-18T13:14:33.646Z,32.08
2019-05-18T13:17:00.932Z,32.10
2019-05-18T13:19:28.614Z,32.10
2019-05-18T13:21:56.127Z,31.96
2019-05-18T13:24:23.674Z,31.46
2019-05-18T13:26:51.489Z,31.08
2019-05-18T13:29:19.165Z,31.06
2019-05-18T13:31:46.449Z,30.71
2019-05-18T13:34:13.907Z,30.65
2019-05-18T13:36:42.221Z,30.04
2019-05-18T13:39:09.865Z,29.55
2019-05-18T13:41:37.677Z,29.67
2019-05-18T13:44:05.261Z,29.70
2019-05-18T13:46:33.362Z,29.70
2019-05-18T13:49:01.206Z,29.67
2019-05-18T13:51:28.466Z,29.74
2019-05-18T13:53:55.770Z,29.63
2019-05-18T13:56:23.081Z,29.67
2019-05-18T13:58:51.254Z,30.04
2019-05-18T14:01:19.026Z,30.19
2019-05-18T14:03:46.277Z,31.09
2019-05-18T14:06:13.964Z,31.71
2019-05-18T14:08:41.505Z,32.41
2019-05-18T14:11:09.024Z,32.58
2019-05-18T14:13:36.498Z,32.75
2019-05-18T14:16:03.784Z,32.98
2019-05-18T14:18:34.243Z,33.07
2019-05-18T14:21:01.649Z,33.31
2019-05-18T14:23:29.080Z,33.23
2019-05-18T14:25:56.481Z,33.36
2019-05-18T14:28:23.815Z,33.71
2019-05-18T14:30:51.662Z,33.82
2019-05-18T14:33:18.943Z,33.86
2019-05-18T14:35:46.812Z,34.04
2019-05-18T14:38:14.140Z,34.34
2019-05-18T14:40:41.672Z,34.46
2019-05-18T14:43:09.261Z,34.47
2019-05-18T14:45:36.517Z,34.58
2019-05-18T14:48:03.767Z,34.88
2019-05-18T14:50:32.530Z,35.25
2019-05-18T14:53:00.739Z,36.19
2019-05-18T14:55:33.659Z,36.19
2019-05-18T14:57:57.796Z,35.84
2019-05-18T15:01:14.435Z,35.77
2019-05-18T15:03:42.271Z,35.62
2019-05-18T15:06:09.522Z,35.60
2019-05-18T15:08:36.762Z,35.96
2019-05-18T15:11:04.206Z,35.99
2019-05-18T15:13:31.914Z,35.92
2019-05-18T15:16:00.505Z,36.01
2019-05-18T15:18:28.244Z,36.12
2019-05-18T15:20:55.495Z,36.19
2019-05-18T15:23:23.566Z,36.05
2019-05-18T15:25:51.571Z,36.16
2019-05-18T15:28:19.790Z,36.16
2019-05-18T15:30:47.469Z,36.22
2019-05-18T15:33:15.244Z,36.08
2019-05-18T15:35:43.325Z,35.85
2019-05-18T15:38:10.956Z,35.92
2019-05-18T15:40:38.722Z,35.79
2019-05-18T15:43:06.895Z,35.75
2019-05-18T15:45:34.501Z,35.75
2019-05-18T15:48:02.009Z,35.71
2019-05-18T15:50:29.273Z,35.68
2019-05-18T15:52:57.015Z,35.62
2019-05-18T15:55:24.597Z,35.68
2019-05-18T15:57:52.130Z,35.64
2019-05-18T16:00:21.007Z,35.88
2019-05-18T16:02:48.593Z,35.77
2019-05-18T16:05:16.245Z,35.87
2019-05-18T16:07:44.116Z,36.07
2019-05-18T16:10:13.603Z,36.04
2019-05-18T16:12:41.175Z,36.04
2019-05-18T16:15:08.774Z,35.99
2019-05-18T16:17:39.229Z,35.92
2019-05-18T16:20:06.499Z,35.91
2019-05-18T16:22:33.774Z,35.85
2019-05-18T16:25:01.414Z,35.67
2019-05-18T16:27:29.097Z,35.67
2019-05-18T16:29:58.669Z,35.73
2019-05-18T16:32:25.903Z,35.74
2019-05-18T16:34:53.185Z,35.73
2019-05-18T16:37:20.432Z,35.72
2019-05-18T16:39:48.599Z,35.84
2019-05-18T16:42:15.813Z,35.81
2019-05-18T16:44:43.058Z,35.87
2019-05-18T16:47:10.677Z,35.84
2019-05-18T16:49:38.056Z,35.86
2019-05-18T16:52:05.678Z,35.84
2019-05-18T16:54:32.908Z,35.86
2019-05-18T16:57:00.615Z,36.35
2019-05-18T16:59:27.832Z,35.90
2019-05-18T17:01:55.571Z,35.90
2019-05-18T17:04:22.960Z,35.94
2019-05-18T17:06:50.545Z,35.94
2019-05-18T17:09:18.877Z,36.03
2019-05-18T17:11:48.165Z,36.28
2019-05-18T17:14:15.619Z,36.27
2019-05-18T17:16:42.904Z,36.36
2019-05-18T17:19:10.089Z,36.36
2019-05-18T17:22:18.152Z,36.32
2019-05-18T17:24:45.756Z,36.27
2019-05-18T17:27:13.281Z,36.25
2019-05-18T17:29:40.660Z,36.33
2019-05-18T17:32:08.837Z,36.35
2019-05-18T17:34:36.471Z,35.93
2019-05-18T17:37:03.758Z,35.93
2019-05-18T17:39:33.218Z,36.03
2019-05-18T17:42:00.487Z,36.03
2019-05-18T17:44:27.821Z,36.28
2019-05-18T17:46:55.139Z,36.37
2019-05-18T17:49:27.991Z,36.37
2019-05-18T17:51:51.927Z,36.43
2019-05-18T17:54:19.287Z,37.16
2019-05-18T17:56:46.978Z,36.90
2019-05-18T17:59:14.664Z,36.78
2019-05-18T18:01:42.023Z,36.61
2019-05-18T18:04:09.336Z,36.51
2019-05-18T18:06:36.975Z,36.45
2019-05-18T18:09:06.735Z,37.01
2019-05-18T18:11:34.375Z,37.01
2019-05-18T18:14:02.314Z,36.57
2019-05-18T18:16:29.572Z,36.56
2019-05-18T18:18:57.107Z,36.59
2019-05-18T18:21:24.516Z,36.67
2019-05-18T18:23:54.482Z,37.31
2019-05-18T18:26:20.964Z,37.31
2019-05-18T18:28:48.701Z,36.81
2019-05-18T18:31:16.243Z,36.84
2019-05-18T18:33:43.924Z,36.90
2019-05-18T18:36:11.228Z,36.86
2019-05-18T18:38:38.707Z,36.96
2019-05-18T18:41:06.456Z,36.90
2019-05-18T18:43:34.552Z,37.10
2019-05-18T18:46:02.546Z,37.10
2019-05-18T18:48:29.989Z,36.89
2019-05-18T18:50:57.232Z,36.93
2019-05-18T18:53:25.105Z,37.05
2019-05-18T18:55:52.469Z,36.75
2019-05-18T18:58:19.921Z,36.75
2019-05-18T19:00:48.179Z,37.07
2019-05-18T19:03:15.527Z,37.17
2019-05-18T19:05:42.763Z,37.15
2019-05-18T19:08:11.018Z,37.25
2019-05-18T19:10:38.316Z,37.29
2019-05-18T19:13:05.894Z,37.34
2019-05-18T19:15:33.781Z,37.27
2019-05-18T19:18:01.740Z,37.37
2019-05-18T19:22:53.566Z,37.37
2019-05-18T19:25:21.334Z,37.42
2019-05-18T19:27:55.029Z,37.34
2019-05-18T19:30:19.424Z,37.49
2019-05-18T19:32:47.203Z,37.61
2019-05-18T19:35:15.441Z,37.96
2019-05-18T19:37:42.910Z,37.96
2019-05-18T19:40:11.422Z,37.63
2019-05-18T19:42:39.215Z,37.57
2019-05-18T19:45:06.762Z,37.61
2019-05-18T19:47:34.589Z,37.70
2019-05-18T19:50:01.888Z,37.69
2019-05-18T19:52:29.224Z,37.69
2019-05-18T19:54:56.632Z,37.71
2019-05-18T19:57:24.236Z,37.73
2019-05-18T19:59:51.790Z,37.73
2019-05-18T20:02:19.314Z,37.71
2019-05-18T20:05:05.689Z,37.67
2019-05-18T20:07:16.383Z,37.66
2019-05-18T20:09:43.938Z,37.72
2019-05-18T20:12:11.287Z,37.68
2019-05-18T20:14:38.538Z,37.77
2019-05-18T20:17:05.809Z,37.74
2019-05-18T20:19:39.095Z,37.79
2019-05-18T20:22:02.535Z,37.73
2019-05-18T20:24:30.521Z,37.73
2019-05-18T20:26:58.066Z,37.77
2019-05-18T20:29:25.663Z,37.76
2019-05-18T20:31:53.748Z,37.81
2019-05-18T20:34:21.146Z,37.81
2019-05-18T20:36:48.493Z,37.83
2019-05-18T20:39:16.262Z,37.90
2019-05-18T20:41:43.882Z,37.90
2019-05-18T20:44:11.786Z,38.31
2019-05-18T20:46:39.186Z,38.31
2019-05-18T20:49:06.704Z,37.96
2019-05-18T20:51:34.091Z,37.96
2019-05-18T20:54:01.790Z,38.01
2019-05-18T20:56:29.486Z,38.32
2019-05-18T20:58:56.934Z,38.32
2019-05-18T21:01:24.317Z,37.98
2019-05-18T21:03:52.393Z,38.08
2019-05-18T21:06:20.469Z,38.04
2019-05-18T21:08:48.502Z,38.09
2019-05-18T21:11:15.864Z,38.02
2019-05-18T21:13:43.406Z,38.09
2019-05-18T21:16:11.237Z,38.08
2019-05-18T21:18:38.542Z,38.15
2019-05-18T21:21:06.195Z,38.10
2019-05-18T21:23:33.562Z,38.19
2019-05-18T21:26:01.243Z,38.25
2019-05-18T21:28:29.061Z,38.31
2019-05-18T21:30:57.034Z,38.36
2019-05-18T21:33:24.288Z,38.33
2019-05-18T21:35:51.657Z,38.40
2019-05-18T21:38:18.948Z,38.45
2019-05-18T21:40:46.305Z,38.49
2019-05-18T21:43:13.783Z,38.59
2019-05-18T21:45:41.064Z,38.63
2019-05-18T21:48:10.937Z,38.65
2019-05-18T21:50:38.442Z,38.84
2019-05-18T21:53:05.844Z,38.77
2019-05-18T21:55:33.161Z,38.90
2019-05-18T21:58:00.792Z,38.97
2019-05-18T22:00:30.001Z,39.07
2019-05-18T22:02:57.277Z,39.09
2019-05-18T22:05:24.645Z,39.08
2019-05-18T22:07:51.894Z,39.24
2019-05-18T22:10:25.797Z,39.24
2019-05-18T22:12:49.148Z,39.39
2019-05-18T22:15:16.568Z,39.32
2019-05-18T22:18:02.974Z,39.48
2019-05-18T22:20:30.910Z,39.48
2019-05-18T22:22:58.935Z,39.54
2019-05-18T22:25:28.028Z,39.58
2019-05-18T22:27:55.823Z,40.06
2019-05-18T22:30:23.455Z,39.71
2019-05-18T22:32:50.806Z,39.74
2019-05-18T22:35:18.082Z,39.83
2019-05-18T22:37:47.447Z,39.82
2019-05-18T22:40:14.719Z,39.73
2019-05-18T22:42:42.459Z,39.74
2019-05-18T22:45:09.735Z,39.85
2019-05-18T22:47:38.609Z,39.91
2019-05-18T22:50:06.356Z,39.88
2019-05-18T22:52:33.710Z,39.88
2019-05-18T22:55:01.498Z,39.83
2019-05-18T22:57:29.156Z,39.69
2019-05-18T22:59:57.110Z,39.72
2019-05-18T23:02:24.695Z,39.84
2019-05-18T23:04:52.211Z,39.53
2019-05-18T23:07:20.159Z,39.46
2019-05-18T23:09:47.486Z,39.38
2019-05-18T23:12:15.108Z,39.32
2019-05-18T23:14:42.722Z,39.32
2019-05-18T23:17:09.955Z,39.23
2019-05-18T23:19:39.443Z,38.98
2019-05-18T23:22:07.227Z,38.98
2019-05-18T23:24:34.424Z,39.16
2019-05-18T23:27:01.881Z,39.18
2019-05-18T23:29:29.361Z,39.20
2019-05-18T23:31:56.758Z,39.14
2019-05-18T23:34:24.043Z,39.14
2019-05-18T23:36:51.351Z,39.05
2019-05-18T23:39:18.613Z,39.07
2019-05-18T23:41:46.458Z,39.03
2019-05-18T23:44:13.701Z,39.03
2019-05-18T23:46:40.915Z,39.02
2019-05-18T23:49:10.958Z,38.98
2019-05-18T23:51:37.610Z,39.00
2019-05-18T23:54:05.161Z,38.89
2019-05-18T23:56:32.449Z,38.94
2019-05-18T23:58:59.998Z,38.82
